createdAt,value
2022-11-24T00:01:13.130Z,6.00
2022-11-24T00:03:40.287Z,6.00
2022-11-24T00:06:11.226Z,6.00
2022-11-24T00:08:40.231Z,6.00
2022-11-24T00:11:16.672Z,6.00
2022-11-24T00:13:44.686Z,6.00
2022-11-24T00:16:23.803Z,6.00
2022-11-24T00:18:53.285Z,6.00
2022-11-24T00:21:21.109Z,6.00
2022-11-24T00:23:49.306Z,6.10
2022-11-24T00:26:21.654Z,6.10
2022-11-24T00:28:50.113Z,6.00
2022-11-24T00:31:28.832Z,6.00
2022-11-24T00:33:59.403Z,6.00
2022-11-24T00:36:29.492Z,6.00
2022-11-24T00:39:01.744Z,6.00
2022-11-24T00:41:29.951Z,6.00
2022-11-24T00:43:57.705Z,6.00
2022-11-24T00:46:28.857Z,6.00
2022-11-24T00:48:56.502Z,6.00
2022-11-24T00:51:30.366Z,6.00
2022-11-24T00:53:58.837Z,6.00
2022-11-24T00:56:27.259Z,5.90
2022-11-24T00:58:54.604Z,6.00
2022-11-24T01:01:24.820Z,5.90
2022-11-24T01:03:52.584Z,5.90
2022-11-24T01:06:22.394Z,5.90
2022-11-24T01:08:49.857Z,5.90
2022-11-24T01:11:51.288Z,5.80
2022-11-24T01:14:19.118Z,5.80
2022-11-24T01:16:46.260Z,5.80
2022-11-24T01:19:13.367Z,5.90
2022-11-24T01:21:40.752Z,5.90
2022-11-24T01:24:07.908Z,5.90
2022-11-24T01:26:35.107Z,5.90
2022-11-24T01:29:02.184Z,5.90
2022-11-24T01:31:29.800Z,5.90
2022-11-24T01:33:56.834Z,6.00
2022-11-24T01:36:23.919Z,6.00
2022-11-24T01:38:51.856Z,6.00
2022-11-24T01:41:20.649Z,6.00
2022-11-24T01:43:48.730Z,6.00
2022-11-24T01:46:44.579Z,6.00
2022-11-24T01:49:21.546Z,6.00
2022-11-24T01:52:14.390Z,6.10
2022-11-24T01:54:48.928Z,6.00
2022-11-24T01:57:23.710Z,6.00
2022-11-24T01:59:55.297Z,6.10
2022-11-24T02:02:22.738Z,6.10
2022-11-24T02:04:51.116Z,6.10
2022-11-24T02:07:18.812Z,6.10
2022-11-24T02:09:51.872Z,6.10
2022-11-24T02:12:18.952Z,6.10
2022-11-24T02:14:46.644Z,6.20
2022-11-24T02:17:13.753Z,6.20
2022-11-24T02:19:40.779Z,6.20
2022-11-24T02:22:15.796Z,6.20
2022-11-24T02:25:00.367Z,6.30
2022-11-24T02:27:27.301Z,6.30
2022-11-24T02:29:54.410Z,6.30
2022-11-24T02:32:22.182Z,6.40
2022-11-24T02:34:49.278Z,6.40
2022-11-24T02:37:16.394Z,6.50
2022-11-24T02:39:43.467Z,6.50
2022-11-24T02:42:13.719Z,6.60
2022-11-24T02:44:45.100Z,6.60
2022-11-24T02:47:13.391Z,6.60
2022-11-24T02:49:41.022Z,6.60
2022-11-24T02:52:08.743Z,6.60
2022-11-24T02:54:36.180Z,6.60
2022-11-24T02:57:03.747Z,6.70
2022-11-24T02:59:31.001Z,6.60
2022-11-24T03:01:58.224Z,6.70
2022-11-24T03:04:25.285Z,6.70
2022-11-24T03:06:52.440Z,6.70
2022-11-24T03:09:19.512Z,6.60
2022-11-24T03:11:47.013Z,6.60
2022-11-24T03:14:14.089Z,6.60
2022-11-24T03:16:41.155Z,6.60
2022-11-24T03:19:08.294Z,6.50
2022-11-24T03:21:36.775Z,6.60
2022-11-24T03:24:04.074Z,6.60
2022-11-24T03:26:31.139Z,6.60
2022-11-24T03:28:58.116Z,6.60
2022-11-24T03:31:25.456Z,6.60
2022-11-24T03:33:52.527Z,6.60
2022-11-24T03:36:19.596Z,6.60
2022-11-24T03:38:46.690Z,6.60
2022-11-24T03:41:13.791Z,6.60
2022-11-24T03:43:44.099Z,6.60
2022-11-24T03:46:12.848Z,6.70
2022-11-24T03:48:40.190Z,6.70
2022-11-24T03:51:07.800Z,6.80
2022-11-24T03:53:35.145Z,6.80
2022-11-24T03:56:03.160Z,6.80
2022-11-24T03:58:30.382Z,6.80
2022-11-24T04:00:58.051Z,6.90
2022-11-24T04:03:25.547Z,7.00
2022-11-24T04:05:52.792Z,6.90
2022-11-24T04:08:20.192Z,7.00
2022-11-24T04:10:51.356Z,7.00
2022-11-24T04:13:20.043Z,7.00
2022-11-24T04:15:47.585Z,7.00
2022-11-24T04:18:15.004Z,7.00
2022-11-24T04:20:42.844Z,7.00
2022-11-24T04:23:10.414Z,7.00
2022-11-24T04:25:37.774Z,7.00
2022-11-24T04:28:04.914Z,7.00
2022-11-24T04:30:31.922Z,7.00
2022-11-24T04:32:59.074Z,7.00
2022-11-24T04:35:26.166Z,7.00
2022-11-24T04:37:53.537Z,7.00
2022-11-24T04:40:21.325Z,7.00
2022-11-24T04:42:55.601Z,7.00
2022-11-24T04:45:23.512Z,7.10
2022-11-24T04:47:50.671Z,7.10
2022-11-24T04:50:18.114Z,7.10
2022-11-24T04:52:45.435Z,7.20
2022-11-24T04:55:13.089Z,7.20
2022-11-24T04:57:40.408Z,7.20
2022-11-24T05:00:09.382Z,7.20
2022-11-24T05:02:37.427Z,7.20
2022-11-24T05:05:06.633Z,7.20
2022-11-24T05:07:34.932Z,7.20
2022-11-24T05:10:20.704Z,7.20
2022-11-24T05:12:56.366Z,7.20
2022-11-24T05:15:24.084Z,7.30
2022-11-24T05:17:51.295Z,7.30
2022-11-24T05:20:18.926Z,7.30
2022-11-24T05:22:46.440Z,7.30
2022-11-24T05:25:14.524Z,7.30
2022-11-24T05:27:41.812Z,7.30
2022-11-24T05:30:10.400Z,7.30
2022-11-24T05:32:37.631Z,7.30
2022-11-24T05:35:05.671Z,7.30
2022-11-24T05:37:33.105Z,7.30
2022-11-24T05:40:00.447Z,7.30
2022-11-24T05:42:47.256Z,7.30
2022-11-24T05:45:20.456Z,7.30
2022-11-24T05:47:49.012Z,7.30
2022-11-24T05:50:18.572Z,7.30
2022-11-24T05:52:45.864Z,7.30
2022-11-24T05:55:15.043Z,7.30
2022-11-24T05:57:43.077Z,7.30
2022-11-24T06:00:11.040Z,7.30
2022-11-24T06:02:38.526Z,7.30
2022-11-24T06:05:06.157Z,7.30
2022-11-24T06:07:33.532Z,7.30
2022-11-24T06:10:00.820Z,7.30
2022-11-24T06:12:28.131Z,7.30
2022-11-24T06:14:55.483Z,7.30
2022-11-24T06:17:22.677Z,7.30
2022-11-24T06:19:51.909Z,7.30
2022-11-24T06:22:19.678Z,7.30
2022-11-24T06:24:46.997Z,7.30
2022-11-24T06:27:14.589Z,7.30
2022-11-24T06:29:41.930Z,7.30
2022-11-24T06:32:09.852Z,7.30
2022-11-24T06:34:37.154Z,7.20
2022-11-24T06:37:04.552Z,7.20
2022-11-24T06:39:31.894Z,7.10
2022-11-24T06:41:59.170Z,7.10
2022-11-24T06:44:26.641Z,7.00
2022-11-24T06:46:54.051Z,7.00
2022-11-24T06:49:21.405Z,7.00
2022-11-24T06:51:48.735Z,7.00
2022-11-24T06:54:17.842Z,6.90
2022-11-24T06:56:44.843Z,6.90
2022-11-24T06:59:21.892Z,6.90
2022-11-24T07:01:49.198Z,6.80
2022-11-24T07:04:17.053Z,6.80
2022-11-24T07:06:44.806Z,6.80
2022-11-24T07:09:13.822Z,6.80
2022-11-24T07:11:41.668Z,6.70
2022-11-24T07:14:09.534Z,6.70
2022-11-24T07:16:37.115Z,6.80
2022-11-24T07:19:04.696Z,6.70
2022-11-24T07:21:32.028Z,6.80
2022-11-24T07:23:59.535Z,6.70
2022-11-24T07:26:27.077Z,6.70
2022-11-24T07:28:54.486Z,6.80
2022-11-24T07:31:25.333Z,6.70
2022-11-24T07:33:54.590Z,6.70
2022-11-24T07:36:22.130Z,6.80
2022-11-24T07:38:49.733Z,6.80
2022-11-24T07:41:19.823Z,6.80
2022-11-24T07:43:48.118Z,6.80
2022-11-24T07:46:17.713Z,6.80
2022-11-24T07:48:45.253Z,6.70
2022-11-24T07:51:12.962Z,6.70
2022-11-24T07:53:40.326Z,6.70
2022-11-24T07:56:07.860Z,6.70
2022-11-24T07:58:36.864Z,6.70
2022-11-24T08:01:16.275Z,6.60
2022-11-24T08:03:44.593Z,6.60
2022-11-24T08:06:24.964Z,6.60
2022-11-24T08:08:52.392Z,6.60
2022-11-24T08:11:19.527Z,6.60
2022-11-24T08:13:47.211Z,6.60
2022-11-24T08:16:17.090Z,6.60
2022-11-24T08:18:44.798Z,6.60
2022-11-24T08:21:15.079Z,6.60
2022-11-24T08:23:42.734Z,6.60
2022-11-24T08:26:18.047Z,6.60
2022-11-24T08:28:47.264Z,6.60
2022-11-24T08:31:18.918Z,6.70
2022-11-24T08:33:46.409Z,6.60
2022-11-24T08:36:16.726Z,6.70
2022-11-24T08:38:44.941Z,6.70
2022-11-24T08:41:15.417Z,6.70
2022-11-24T08:43:43.387Z,6.70
2022-11-24T08:46:13.933Z,6.80
2022-11-24T08:48:44.828Z,6.80
2022-11-24T08:51:14.381Z,6.80
2022-11-24T08:53:42.196Z,6.90
2022-11-24T08:56:10.840Z,6.90
2022-11-24T08:58:38.609Z,6.90
2022-11-24T09:01:14.615Z,6.90
2022-11-24T09:03:48.498Z,7.00
2022-11-24T09:06:19.741Z,7.00
2022-11-24T09:08:46.964Z,7.00
2022-11-24T09:11:15.642Z,7.00
2022-11-24T09:13:43.496Z,7.00
2022-11-24T09:16:14.428Z,7.10
2022-11-24T09:18:41.782Z,7.10
2022-11-24T09:21:20.102Z,7.10
2022-11-24T09:23:49.102Z,7.10
2022-11-24T09:26:30.249Z,7.20
2022-11-24T09:28:59.006Z,7.20
2022-11-24T09:31:28.873Z,7.20
2022-11-24T09:33:56.625Z,7.30
2022-11-24T09:36:24.922Z,7.30
2022-11-24T09:38:52.527Z,7.40
2022-11-24T09:41:44.702Z,7.40
2022-11-24T09:44:21.505Z,7.50
2022-11-24T09:47:34.284Z,7.50
2022-11-24T09:50:03.751Z,7.60
2022-11-24T09:52:48.792Z,7.60
2022-11-24T09:55:36.233Z,7.60
2022-11-24T09:58:31.096Z,7.60
2022-11-24T10:00:58.723Z,7.50
2022-11-24T10:03:43.537Z,7.60
2022-11-24T10:06:26.112Z,7.70
2022-11-24T10:09:14.339Z,7.70
2022-11-24T10:12:11.828Z,7.80
2022-11-24T10:14:48.295Z,8.00
2022-11-24T10:17:45.687Z,8.00
2022-11-24T10:20:23.115Z,8.00
2022-11-24T10:23:11.595Z,8.10
2022-11-24T10:25:44.357Z,8.20
2022-11-24T10:28:15.352Z,8.30
2022-11-24T10:30:43.205Z,8.30
2022-11-24T10:33:18.756Z,8.30
2022-11-24T10:35:57.251Z,8.40
2022-11-24T10:38:44.623Z,8.50
2022-11-24T10:41:25.366Z,8.70
2022-11-24T10:43:53.384Z,8.80
2022-11-24T10:46:28.379Z,9.00
2022-11-24T10:49:06.011Z,8.90
2022-11-24T10:51:46.822Z,8.90
2022-11-24T10:54:16.593Z,8.80
2022-11-24T10:56:45.764Z,8.90
2022-11-24T10:59:36.949Z,9.00
2022-11-24T11:02:36.326Z,8.90
2022-11-24T11:05:35.390Z,8.90
2022-11-24T11:08:14.545Z,8.90
2022-11-24T11:10:43.558Z,9.00
2022-11-24T11:13:30.421Z,9.10
2022-11-24T11:15:59.318Z,9.20
2022-11-24T11:18:32.293Z,9.20
2022-11-24T11:21:04.715Z,9.20
2022-11-24T11:23:36.057Z,9.30
2022-11-24T11:26:23.017Z,9.50
2022-11-24T11:34:53.735Z,9.80
2022-11-24T11:37:24.319Z,10.10
2022-11-24T11:39:53.678Z,10.30
2022-11-24T11:43:00.590Z,10.60
2022-11-24T11:45:41.974Z,10.90
2022-11-24T11:48:40.583Z,11.10
2022-11-24T11:51:28.902Z,10.90
2022-11-24T11:54:40.860Z,10.70
2022-11-24T11:57:12.392Z,10.70
2022-11-24T12:00:09.815Z,10.70
2022-11-24T12:02:55.119Z,10.70
2022-11-24T12:05:37.610Z,10.60
2022-11-24T12:09:11.480Z,10.50
2022-11-24T12:11:45.803Z,10.30
2022-11-24T12:14:28.221Z,10.30
2022-11-24T12:17:09.692Z,10.40
2022-11-24T12:20:02.053Z,10.30
2022-11-24T12:22:38.557Z,10.20
2022-11-24T12:25:29.885Z,10.10
2022-11-24T12:28:14.851Z,10.10
2022-11-24T12:30:50.940Z,10.20
2022-11-24T12:33:26.096Z,10.10
2022-11-24T12:36:04.647Z,10.10
2022-11-24T12:39:00.495Z,10.00
2022-11-24T12:41:53.562Z,10.00
2022-11-24T12:44:58.386Z,10.20
2022-11-24T12:47:52.437Z,10.30
2022-11-24T12:50:22.945Z,10.60
2022-11-24T12:53:10.954Z,10.50
2022-11-24T12:55:39.821Z,10.50
2022-11-24T12:58:33.782Z,10.50
2022-11-24T13:01:17.066Z,10.40
2022-11-24T13:04:05.511Z,10.30
2022-11-24T13:06:41.041Z,10.50
2022-11-24T13:09:12.765Z,10.40
2022-11-24T13:12:13.653Z,10.20
2022-11-24T13:14:44.700Z,10.30
2022-11-24T13:17:39.605Z,10.40
2022-11-24T13:20:21.882Z,10.50
2022-11-24T13:23:03.676Z,10.70
2022-11-24T13:25:34.039Z,11.10
2022-11-24T13:28:07.014Z,11.40
2022-11-24T13:30:34.128Z,11.70
2022-11-24T13:33:16.621Z,11.60
2022-11-24T13:36:02.755Z,11.50
2022-11-24T13:38:53.793Z,11.30
2022-11-24T13:41:32.815Z,11.50
2022-11-24T13:44:15.352Z,11.70
2022-11-24T13:47:05.799Z,11.50
2022-11-24T13:49:41.481Z,11.40
2022-11-24T13:52:36.359Z,11.40
2022-11-24T13:55:10.060Z,11.30
2022-11-24T13:57:54.344Z,11.30
2022-11-24T14:00:29.086Z,11.40
2022-11-24T14:03:07.004Z,11.20
2022-11-24T14:05:39.253Z,11.00
2022-11-24T14:08:14.971Z,10.80
2022-11-24T14:10:42.861Z,10.70
2022-11-24T14:13:31.523Z,10.70
2022-11-24T14:16:10.803Z,10.90
2022-11-24T14:18:40.547Z,11.10
2022-11-24T14:21:31.035Z,11.00
2022-11-24T14:24:00.348Z,11.10
2022-11-24T14:26:34.132Z,11.20
2022-11-24T14:29:17.086Z,11.20
2022-11-24T14:31:56.807Z,11.10
2022-11-24T14:34:26.325Z,11.10
2022-11-24T14:36:55.160Z,11.10
2022-11-24T14:39:24.174Z,11.10
2022-11-24T14:42:08.315Z,11.10
2022-11-24T14:44:41.307Z,11.10
2022-11-24T14:47:39.450Z,10.90
2022-11-24T14:50:11.745Z,10.80
2022-11-24T14:52:54.606Z,10.60
2022-11-24T14:55:33.188Z,10.50
2022-11-24T14:58:00.584Z,10.40
2022-11-24T15:00:32.088Z,10.30
2022-11-24T15:03:02.484Z,10.10
2022-11-24T15:06:00.669Z,10.00
2022-11-24T15:08:45.348Z,9.90
2022-11-24T15:11:13.125Z,9.80
2022-11-24T15:13:40.976Z,9.60
2022-11-24T15:16:20.176Z,9.50
2022-11-24T15:18:49.653Z,9.40
2022-11-24T15:21:19.541Z,9.30
2022-11-24T15:24:25.176Z,9.20
2022-11-24T15:27:00.942Z,9.20
2022-11-24T15:29:28.075Z,9.00
2022-11-24T15:31:55.603Z,9.00
2022-11-24T15:34:22.952Z,8.90
2022-11-24T15:36:50.214Z,8.90
2022-11-24T15:39:18.848Z,8.80
2022-11-24T15:41:46.055Z,8.70
2022-11-24T15:44:13.189Z,8.70
2022-11-24T15:46:40.558Z,8.70
2022-11-24T15:49:07.994Z,8.60
2022-11-24T15:51:39.816Z,8.60
2022-11-24T15:54:12.994Z,8.70
2022-11-24T15:56:42.177Z,8.70
2022-11-24T15:59:20.601Z,8.70
2022-11-24T16:01:50.137Z,8.70
2022-11-24T16:04:17.591Z,8.60
2022-11-24T16:06:44.837Z,8.60
2022-11-24T16:09:16.771Z,8.50
2022-11-24T16:11:44.113Z,8.40
2022-11-24T16:14:11.354Z,8.40
2022-11-24T16:16:38.803Z,8.30
2022-11-24T16:19:06.077Z,8.20
2022-11-24T16:21:33.380Z,8.20
2022-11-24T16:24:00.465Z,8.10
2022-11-24T16:26:27.778Z,8.10
2022-11-24T16:28:55.113Z,8.00
2022-11-24T16:31:22.511Z,7.90
2022-11-24T16:33:50.150Z,7.90
2022-11-24T16:36:17.412Z,7.80
2022-11-24T16:38:44.703Z,7.80
2022-11-24T16:41:12.253Z,7.70
2022-11-24T16:43:39.667Z,7.70
2022-11-24T16:46:09.786Z,7.70
2022-11-24T16:48:37.361Z,7.60
2022-11-24T16:51:14.555Z,7.60
2022-11-24T16:53:43.619Z,7.60
2022-11-24T16:56:11.417Z,7.60
2022-11-24T16:58:40.341Z,7.60
2022-11-24T17:01:10.622Z,7.50
2022-11-24T17:03:38.607Z,7.50
2022-11-24T17:06:08.385Z,7.40
2022-11-24T17:08:36.944Z,7.40
2022-11-24T17:11:11.454Z,7.40
2022-11-24T17:13:39.338Z,7.30
2022-11-24T17:16:08.400Z,7.30
2022-11-24T17:18:36.015Z,7.30
2022-11-24T17:21:09.221Z,7.30
2022-11-24T17:23:38.305Z,7.20
2022-11-24T17:26:16.524Z,7.20
2022-11-24T17:28:44.482Z,7.20
2022-11-24T17:31:22.553Z,7.10
2022-11-24T17:33:50.942Z,7.10
2022-11-24T17:36:18.417Z,7.00
2022-11-24T17:38:45.826Z,6.90
2022-11-24T17:41:14.341Z,6.90
2022-11-24T17:43:41.555Z,6.80
2022-11-24T17:46:10.543Z,6.80
2022-11-24T17:48:37.793Z,6.80
2022-11-24T17:51:08.232Z,6.70
2022-11-24T17:53:39.436Z,6.70
2022-11-24T17:56:08.261Z,6.60
2022-11-24T17:58:41.252Z,6.50
2022-11-24T18:01:11.181Z,6.50
2022-11-24T18:03:42.234Z,6.40
2022-11-24T18:06:11.889Z,6.40
2022-11-24T18:08:41.795Z,6.30
2022-11-24T18:11:23.625Z,6.30
2022-11-24T18:13:59.969Z,6.30
2022-11-24T18:16:30.205Z,6.30
2022-11-24T18:19:14.900Z,6.30
2022-11-24T18:21:44.998Z,6.30
2022-11-24T18:24:13.291Z,6.30
2022-11-24T18:26:41.951Z,6.30
2022-11-24T18:29:09.872Z,6.30
2022-11-24T18:31:37.810Z,6.20
2022-11-24T18:34:06.260Z,6.20
2022-11-24T18:36:34.825Z,6.10
2022-11-24T18:39:07.171Z,6.10
2022-11-24T18:41:35.077Z,6.00
2022-11-24T18:44:03.471Z,6.00
2022-11-24T18:46:30.731Z,5.90
2022-11-24T18:48:58.128Z,5.90
2022-11-24T18:51:25.564Z,5.80
2022-11-24T18:54:00.276Z,5.90
2022-11-24T18:56:27.913Z,5.90
2022-11-24T18:58:56.834Z,5.90
2022-11-24T19:01:27.015Z,5.80
2022-11-24T19:03:56.689Z,5.80
2022-11-24T19:06:34.275Z,5.80
2022-11-24T19:09:07.964Z,5.70
2022-11-24T19:11:38.231Z,5.70
2022-11-24T19:14:08.017Z,5.60
2022-11-24T19:16:35.945Z,5.50
2022-11-24T19:19:03.603Z,5.50
2022-11-24T19:21:32.589Z,5.50
2022-11-24T19:24:04.477Z,5.50
2022-11-24T19:26:32.633Z,5.60
2022-11-24T19:28:59.972Z,5.60
2022-11-24T19:31:27.305Z,5.60
2022-11-24T19:33:55.524Z,5.60
2022-11-24T19:36:23.787Z,5.50
2022-11-24T19:38:55.896Z,5.50
2022-11-24T19:41:25.356Z,5.50
2022-11-24T19:43:54.931Z,5.50
2022-11-24T19:46:25.829Z,5.40
2022-11-24T19:48:57.535Z,5.40
2022-11-24T19:51:27.649Z,5.40
2022-11-24T19:53:55.273Z,5.30
2022-11-24T19:56:24.778Z,5.30
2022-11-24T19:58:53.373Z,5.30
2022-11-24T20:01:29.633Z,5.30
2022-11-24T20:04:02.899Z,5.30
2022-11-24T20:06:32.963Z,5.30
2022-11-24T20:09:01.216Z,5.30
2022-11-24T20:11:29.230Z,5.30
2022-11-24T20:13:57.338Z,5.20
2022-11-24T20:16:28.265Z,5.20
2022-11-24T20:18:58.111Z,5.20
2022-11-24T20:21:34.138Z,5.10
2022-11-24T20:24:02.793Z,5.20
2022-11-24T20:26:33.090Z,5.20
2022-11-24T20:29:00.740Z,5.20
2022-11-24T20:31:34.265Z,5.20
2022-11-24T20:34:02.764Z,5.20
2022-11-24T20:36:31.566Z,5.20
2022-11-24T20:39:04.854Z,5.20
2022-11-24T20:41:34.841Z,5.30
2022-11-24T20:44:07.297Z,5.30
2022-11-24T20:46:36.982Z,5.30
2022-11-24T20:49:05.598Z,5.30
2022-11-24T20:51:35.076Z,5.30
2022-11-24T20:54:05.575Z,5.30
2022-11-24T20:56:35.726Z,5.30
2022-11-24T20:59:04.530Z,5.30
2022-11-24T21:01:38.845Z,5.30
2022-11-24T21:04:11.728Z,5.30
2022-11-24T21:06:39.571Z,5.20
2022-11-24T21:09:08.941Z,5.10
2022-11-24T21:11:37.616Z,5.10
2022-11-24T21:14:05.661Z,5.10
2022-11-24T21:16:35.518Z,5.20
2022-11-24T21:19:06.326Z,5.20
2022-11-24T21:21:36.011Z,5.20
2022-11-24T21:24:06.069Z,5.20
2022-11-24T21:26:39.946Z,5.10
2022-11-24T21:29:07.690Z,5.10
2022-11-24T21:31:40.102Z,5.10
2022-11-24T21:34:08.768Z,5.10
2022-11-24T21:36:38.078Z,5.10
2022-11-24T21:39:05.444Z,5.10
2022-11-24T21:41:33.909Z,5.10
2022-11-24T21:44:01.181Z,5.00
2022-11-24T21:46:39.003Z,5.00
2022-11-24T21:49:07.957Z,5.00
2022-11-24T21:51:35.320Z,5.10
2022-11-24T21:54:04.814Z,5.00
2022-11-24T21:56:32.033Z,5.00
2022-11-24T21:58:59.381Z,5.00
2022-11-24T22:01:28.305Z,5.00
2022-11-24T22:03:56.489Z,5.00
2022-11-24T22:06:24.042Z,5.00
2022-11-24T22:08:51.595Z,4.90
2022-11-24T22:11:20.999Z,5.00
2022-11-24T22:13:49.052Z,4.90
2022-11-24T22:16:18.828Z,5.00
2022-11-24T22:18:46.430Z,5.00
2022-11-24T22:21:16.294Z,5.00
2022-11-24T22:23:44.232Z,5.10
2022-11-24T22:26:17.177Z,5.10
2022-11-24T22:28:45.346Z,5.20
2022-11-24T22:31:18.368Z,5.10
2022-11-24T22:33:45.923Z,5.20
2022-11-24T22:36:14.778Z,5.20
2022-11-24T22:38:42.820Z,5.20
2022-11-24T22:41:17.575Z,5.20
2022-11-24T22:43:46.330Z,5.20
2022-11-24T22:46:16.143Z,5.20
2022-11-24T22:48:45.315Z,5.30
2022-11-24T22:51:13.832Z,5.30
2022-11-24T22:53:41.733Z,5.30
2022-11-24T22:56:12.214Z,5.40
2022-11-24T22:58:40.383Z,5.30
2022-11-24T23:01:09.359Z,5.40
2022-11-24T23:03:37.111Z,5.30
2022-11-24T23:06:09.921Z,5.40
2022-11-24T23:08:37.297Z,5.30
2022-11-24T23:11:16.929Z,5.30
2022-11-24T23:13:44.765Z,5.30
2022-11-24T23:16:21.171Z,5.30
2022-11-24T23:18:53.728Z,5.40
2022-11-24T23:21:32.568Z,5.40
2022-11-24T23:24:02.240Z,5.40
2022-11-24T23:26:32.304Z,5.40
2022-11-24T23:28:59.623Z,5.50
2022-11-24T23:31:29.178Z,5.50
2022-11-24T23:33:58.956Z,5.50
2022-11-24T23:36:26.948Z,5.50
2022-11-24T23:38:54.723Z,5.50
2022-11-24T23:41:24.533Z,5.50
2022-11-24T23:43:52.719Z,5.50
2022-11-24T23:46:24.852Z,5.50
2022-11-24T23:48:53.836Z,5.50
2022-11-24T23:51:26.618Z,5.50
2022-11-24T23:53:54.940Z,5.50
2022-11-24T23:56:29.151Z,5.50
2022-11-24T23:58:56.238Z,5.50
